createdAt,value
2018-03-18T00:00:23.106Z,9.60
2018-03-18T00:01:22.992Z,9.70
2018-03-18T00:02:22.921Z,9.60
2018-03-18T00:03:22.828Z,9.20
2018-03-18T00:04:22.755Z,9.30
2018-03-18T00:05:22.644Z,9.70
2018-03-18T00:06:22.587Z,9.30
2018-03-18T00:07:22.471Z,9.70
2018-03-18T00:08:22.454Z,8.90
2018-03-18T00:09:22.315Z,9.40
2018-03-18T00:10:22.245Z,10.10
2018-03-18T00:11:22.235Z,10.60
2018-03-18T00:12:22.061Z,9.80
2018-03-18T00:13:21.966Z,9.60
2018-03-18T00:14:22.002Z,9.80
2018-03-18T00:15:21.818Z,9.60
2018-03-18T00:16:21.879Z,9.80
2018-03-18T00:17:21.622Z,9.70
2018-03-18T00:18:21.621Z,9.40
2018-03-18T00:19:21.454Z,9.70
2018-03-18T00:20:21.484Z,9.80
2018-03-18T00:21:21.292Z,9.90
2018-03-18T00:24:03.147Z,9.80
2018-03-18T00:25:03.148Z,9.40
2018-03-18T00:26:02.981Z,9.90
2018-03-18T00:27:02.979Z,10.30
2018-03-18T00:28:02.815Z,9.70
2018-03-18T00:29:02.846Z,10.30
2018-03-18T00:30:02.636Z,9.90
2018-03-18T00:31:02.679Z,10.30
2018-03-18T00:32:02.474Z,10.10
2018-03-18T00:33:02.500Z,9.20
2018-03-18T00:34:02.296Z,9.70
2018-03-18T00:35:02.310Z,9.10
2018-03-18T00:36:02.162Z,10.00
2018-03-18T00:37:02.097Z,9.90
2018-03-18T00:38:01.949Z,10.60
2018-03-18T00:40:44.155Z,9.60
2018-03-18T00:41:44.248Z,10.00
2018-03-18T00:42:43.987Z,10.00
2018-03-18T00:43:44.003Z,10.20
2018-03-18T00:44:43.840Z,9.90
2018-03-18T00:45:43.959Z,9.20
2018-03-18T00:46:43.630Z,10.40
2018-03-18T00:47:43.744Z,10.00
2018-03-18T00:48:43.467Z,9.60
2018-03-18T00:49:43.435Z,10.20
2018-03-18T00:50:43.293Z,10.30
2018-03-18T00:51:43.274Z,9.90
2018-03-18T00:52:43.158Z,9.90
2018-03-18T00:53:43.148Z,9.50
2018-03-18T00:54:42.948Z,10.10
2018-03-18T00:55:42.956Z,10.50
2018-03-18T00:56:42.784Z,9.90
2018-03-18T00:57:42.849Z,10.10
2018-03-18T00:58:42.610Z,9.60
2018-03-18T00:59:44.169Z,10.60
2018-03-18T01:00:42.434Z,10.20
2018-03-18T01:01:42.481Z,10.80
2018-03-18T01:02:42.287Z,10.40
2018-03-18T01:03:42.327Z,10.20
2018-03-18T01:04:42.089Z,10.30
2018-03-18T01:05:42.104Z,10.30
2018-03-18T01:06:41.938Z,10.80
2018-03-18T01:07:41.916Z,10.90
2018-03-18T01:08:41.771Z,10.00
2018-03-18T01:09:41.720Z,9.90
2018-03-18T01:10:41.582Z,10.60
2018-03-18T01:11:41.523Z,10.00
2018-03-18T01:12:41.420Z,10.50
2018-03-18T01:13:41.476Z,10.00
2018-03-18T01:14:41.288Z,9.80
2018-03-18T01:15:41.248Z,10.50
2018-03-18T01:16:41.070Z,10.90
2018-03-18T01:17:41.067Z,10.90
2018-03-18T01:18:40.928Z,9.80
2018-03-18T01:19:40.857Z,11.10
2018-03-18T01:20:40.738Z,10.70
2018-03-18T01:21:40.671Z,11.00
2018-03-18T01:22:40.557Z,10.30
2018-03-18T01:23:40.593Z,10.70
2018-03-18T01:24:40.393Z,10.40
2018-03-18T01:25:40.425Z,10.80
2018-03-18T01:26:40.219Z,10.40
2018-03-18T01:27:40.209Z,10.60
2018-03-18T01:28:40.051Z,10.30
2018-03-18T01:29:40.021Z,10.30
2018-03-18T01:30:39.896Z,11.10
2018-03-18T01:31:39.875Z,10.60
2018-03-18T01:32:39.710Z,10.60
2018-03-18T01:33:40.712Z,10.60
2018-03-18T01:34:39.542Z,10.30
2018-03-18T01:35:39.568Z,10.10
2018-03-18T01:36:39.373Z,10.90
2018-03-18T01:37:39.344Z,10.80
2018-03-18T01:38:39.708Z,10.30
2018-03-18T01:39:39.180Z,11.10
2018-03-18T01:40:39.019Z,9.50
2018-03-18T01:41:38.984Z,10.20
2018-03-18T01:42:38.855Z,9.30
2018-03-18T01:43:38.865Z,9.20
2018-03-18T01:44:38.706Z,10.30
2018-03-18T01:45:38.727Z,10.20
2018-03-18T01:46:38.508Z,10.80
2018-03-18T01:47:38.485Z,10.70
2018-03-18T01:48:38.387Z,10.40
2018-03-18T01:49:38.393Z,9.80
2018-03-18T01:50:38.193Z,10.30
2018-03-18T01:51:38.745Z,10.00
2018-03-18T01:52:38.025Z,9.00
2018-03-18T01:53:38.013Z,10.00
2018-03-18T01:54:37.827Z,10.00
2018-03-18T01:55:37.848Z,10.70
2018-03-18T01:56:37.662Z,10.40
2018-03-18T01:57:37.625Z,11.20
2018-03-18T01:58:37.503Z,10.00
2018-03-18T01:59:37.439Z,8.30
2018-03-18T02:00:37.336Z,10.40
2018-03-18T02:01:37.387Z,9.80
2018-03-18T02:02:37.155Z,10.30
2018-03-18T02:03:37.165Z,9.80
2018-03-18T02:04:36.973Z,9.60
2018-03-18T02:05:37.008Z,9.70
2018-03-18T02:06:36.834Z,9.40
2018-03-18T02:07:36.775Z,10.00
2018-03-18T02:08:36.640Z,10.20
2018-03-18T02:09:36.582Z,10.40
2018-03-18T02:10:36.488Z,10.30
2018-03-18T02:11:36.499Z,9.80
2018-03-18T02:12:36.313Z,9.40
2018-03-18T02:13:36.314Z,9.80
2018-03-18T02:14:36.131Z,10.00
2018-03-18T02:15:36.116Z,10.30
2018-03-18T02:16:35.988Z,9.10
2018-03-18T02:17:35.943Z,9.70
2018-03-18T02:18:36.724Z,10.50
2018-03-18T02:19:35.735Z,10.50
2018-03-18T02:20:35.603Z,10.20
2018-03-18T02:21:35.677Z,10.70
2018-03-18T02:22:35.458Z,9.50
2018-03-18T02:23:35.457Z,10.70
2018-03-18T02:24:35.293Z,10.20
2018-03-18T02:25:35.269Z,9.90
2018-03-18T02:26:35.719Z,9.60
2018-03-18T02:27:35.069Z,8.40
2018-03-18T02:28:34.984Z,10.80
2018-03-18T02:29:34.873Z,10.20
2018-03-18T02:30:34.787Z,9.30
2018-03-18T02:31:34.828Z,9.30
2018-03-18T02:32:34.603Z,9.60
2018-03-18T02:33:34.594Z,10.00
2018-03-18T02:34:34.427Z,9.50
2018-03-18T02:35:34.404Z,8.90
2018-03-18T02:36:34.265Z,9.80
2018-03-18T02:37:34.231Z,9.80
2018-03-18T02:38:34.154Z,9.80
2018-03-18T02:39:34.116Z,9.70
2018-03-18T02:40:33.906Z,8.50
2018-03-18T02:41:33.968Z,9.50
2018-03-18T02:42:33.726Z,9.70
2018-03-18T02:43:33.738Z,10.40
2018-03-18T02:44:33.580Z,9.50
2018-03-18T02:45:33.552Z,9.90
2018-03-18T02:46:33.414Z,10.10
2018-03-18T02:47:33.393Z,9.80
2018-03-18T02:48:33.285Z,9.50
2018-03-18T02:49:33.260Z,9.30
2018-03-18T02:50:33.063Z,9.40
2018-03-18T02:51:33.092Z,9.70
2018-03-18T02:52:32.914Z,9.50
2018-03-18T02:53:32.872Z,9.40
2018-03-18T02:54:32.696Z,9.20
2018-03-18T02:55:32.702Z,10.00
2018-03-18T02:56:32.534Z,8.70
2018-03-18T02:57:32.540Z,9.10
2018-03-18T02:58:32.366Z,8.60
2018-03-18T02:59:32.409Z,9.80
2018-03-18T03:00:32.194Z,9.20
2018-03-18T03:01:32.222Z,9.50
2018-03-18T03:02:32.060Z,10.40
2018-03-18T03:03:32.019Z,9.90
2018-03-18T03:04:31.860Z,9.20
2018-03-18T03:05:31.839Z,9.30
2018-03-18T03:06:31.698Z,9.40
2018-03-18T03:09:13.674Z,9.00
2018-03-18T03:10:13.636Z,9.00
2018-03-18T03:11:13.482Z,9.60
2018-03-18T03:12:13.564Z,9.30
2018-03-18T03:13:13.331Z,9.90
2018-03-18T03:14:13.360Z,9.70
2018-03-18T03:15:13.137Z,9.60
2018-03-18T03:16:13.167Z,9.70
2018-03-18T03:17:12.970Z,9.70
2018-03-18T03:18:13.020Z,9.80
2018-03-18T03:19:12.796Z,9.80
2018-03-18T03:20:13.722Z,9.70
2018-03-18T03:21:12.626Z,10.80
2018-03-18T03:22:12.598Z,9.30
2018-03-18T03:23:12.488Z,9.80
2018-03-18T03:24:12.509Z,10.00
2018-03-18T03:25:12.282Z,9.00
2018-03-18T03:26:12.311Z,9.40
2018-03-18T03:27:12.125Z,9.90
2018-03-18T03:28:12.118Z,9.40
2018-03-18T03:29:12.088Z,9.30
2018-03-18T03:30:11.929Z,9.50
2018-03-18T03:31:11.771Z,10.10
2018-03-18T03:32:11.746Z,10.20
2018-03-18T03:33:11.601Z,9.40
2018-03-18T03:34:11.611Z,10.50
2018-03-18T03:35:11.437Z,9.50
2018-03-18T03:36:12.225Z,9.30
2018-03-18T03:37:11.263Z,9.50
2018-03-18T03:38:11.259Z,9.50
2018-03-18T03:39:11.737Z,9.40
2018-03-18T03:40:11.068Z,8.60
2018-03-18T03:41:10.921Z,9.70
2018-03-18T03:42:10.896Z,9.70
2018-03-18T03:43:10.765Z,8.20
2018-03-18T03:44:10.803Z,9.90
2018-03-18T03:45:10.605Z,9.20
2018-03-18T03:46:10.598Z,9.80
2018-03-18T03:47:10.408Z,9.60
2018-03-18T03:48:10.408Z,10.00
2018-03-18T03:49:10.237Z,9.00
2018-03-18T03:50:10.265Z,9.50
2018-03-18T03:51:10.058Z,8.60
2018-03-18T03:52:10.024Z,10.10
2018-03-18T03:53:09.896Z,9.70
2018-03-18T03:54:09.949Z,10.20
2018-03-18T03:55:09.737Z,10.50
2018-03-18T03:56:09.740Z,9.60
2018-03-18T03:57:09.546Z,9.70
2018-03-18T03:58:09.554Z,9.90
2018-03-18T03:59:09.445Z,9.50
2018-03-18T04:00:09.400Z,9.30
2018-03-18T04:01:09.209Z,9.20
2018-03-18T04:02:09.173Z,9.70
2018-03-18T04:03:09.041Z,9.20
2018-03-18T04:04:09.083Z,9.50
2018-03-18T04:05:08.888Z,9.20
2018-03-18T04:06:08.791Z,9.30
2018-03-18T04:07:08.704Z,10.10
2018-03-18T04:08:08.697Z,9.40
2018-03-18T04:09:09.223Z,9.70
2018-03-18T04:10:08.533Z,9.50
2018-03-18T04:11:08.367Z,9.60
2018-03-18T04:12:08.311Z,10.30
2018-03-18T04:13:08.181Z,9.70
2018-03-18T04:14:08.224Z,9.50
2018-03-18T04:15:08.023Z,9.60
2018-03-18T04:16:09.681Z,9.80
2018-03-18T04:17:07.851Z,9.70
2018-03-18T04:18:07.844Z,9.40
2018-03-18T04:19:07.678Z,9.60
2018-03-18T04:20:07.673Z,10.40
2018-03-18T04:21:07.501Z,10.10
2018-03-18T04:22:07.461Z,9.40
2018-03-18T04:23:07.345Z,9.20
2018-03-18T04:24:07.366Z,10.30
2018-03-18T04:25:07.162Z,10.30
2018-03-18T04:26:07.681Z,10.10
2018-03-18T04:27:07.739Z,10.20
2018-03-18T04:28:06.990Z,9.70
2018-03-18T04:29:06.908Z,10.50
2018-03-18T04:30:06.796Z,8.90
2018-03-18T04:31:08.182Z,10.20
2018-03-18T04:32:07.218Z,9.70
2018-03-18T04:33:06.480Z,9.80
2018-03-18T04:34:06.510Z,9.90
2018-03-18T04:35:06.315Z,9.80
2018-03-18T04:36:06.363Z,9.60
2018-03-18T04:37:06.131Z,10.40
2018-03-18T04:38:06.136Z,9.50
2018-03-18T04:39:06.725Z,9.10
2018-03-18T04:40:05.946Z,10.30
2018-03-18T04:41:05.806Z,9.70
2018-03-18T04:42:05.789Z,9.70
2018-03-18T04:43:06.182Z,10.00
2018-03-18T04:44:05.650Z,9.40
2018-03-18T04:45:05.451Z,9.70
2018-03-18T04:46:05.470Z,9.60
2018-03-18T04:47:05.311Z,8.60
2018-03-18T04:48:05.319Z,9.60
2018-03-18T04:49:05.682Z,9.20
2018-03-18T04:50:05.081Z,9.80
2018-03-18T04:51:04.935Z,9.50
2018-03-18T04:52:04.944Z,10.10
2018-03-18T04:53:04.790Z,10.00
2018-03-18T04:54:04.796Z,9.80
2018-03-18T04:55:04.600Z,9.20
2018-03-18T04:56:04.610Z,9.50
2018-03-18T04:57:04.458Z,9.80
2018-03-18T04:58:04.416Z,9.40
2018-03-18T04:59:05.183Z,9.50
2018-03-18T05:00:04.730Z,10.00
2018-03-18T05:01:04.080Z,9.60
2018-03-18T05:02:04.068Z,9.30
2018-03-18T05:03:03.905Z,9.40
2018-03-18T05:04:03.991Z,9.70
2018-03-18T05:05:04.726Z,9.00
2018-03-18T05:06:03.765Z,9.90
2018-03-18T05:07:03.574Z,9.20
2018-03-18T05:08:03.594Z,9.90
2018-03-18T05:09:03.412Z,10.00
2018-03-18T05:10:03.371Z,9.50
2018-03-18T05:11:03.237Z,9.90
2018-03-18T05:12:03.187Z,9.30
2018-03-18T05:13:03.078Z,8.90
2018-03-18T05:14:03.095Z,10.40
2018-03-18T05:15:02.878Z,8.70
2018-03-18T05:16:03.020Z,10.00
2018-03-18T05:17:02.716Z,10.00
2018-03-18T05:18:02.747Z,9.00
2018-03-18T05:19:02.575Z,9.90
2018-03-18T05:20:02.517Z,9.80
2018-03-18T05:21:02.373Z,9.80
2018-03-18T05:22:02.320Z,9.40
2018-03-18T05:23:02.222Z,9.30
2018-03-18T05:24:02.232Z,9.70
2018-03-18T05:25:02.046Z,9.30
2018-03-18T05:26:02.357Z,10.10
2018-03-18T05:27:01.871Z,9.20
2018-03-18T05:28:02.706Z,9.50
2018-03-18T05:29:01.677Z,9.40
2018-03-18T05:30:01.661Z,8.40
2018-03-18T05:31:01.524Z,9.70
2018-03-18T05:32:01.460Z,9.90
2018-03-18T05:33:01.384Z,10.10
2018-03-18T05:34:01.380Z,9.90
2018-03-18T05:35:01.205Z,10.10
2018-03-18T05:36:02.189Z,9.30
2018-03-18T05:37:01.001Z,10.00
2018-03-18T05:38:01.020Z,9.60
2018-03-18T05:39:00.853Z,9.70
2018-03-18T05:40:00.831Z,10.00
2018-03-18T05:41:00.659Z,9.80
2018-03-18T05:42:00.616Z,9.80
2018-03-18T05:43:00.480Z,8.80
2018-03-18T05:44:00.539Z,9.80
2018-03-18T05:45:00.329Z,9.60
2018-03-18T05:46:00.329Z,10.10
2018-03-18T05:47:00.139Z,9.90
2018-03-18T05:48:00.138Z,10.20
2018-03-18T05:49:00.009Z,10.40
2018-03-18T05:49:59.981Z,10.10
2018-03-18T05:50:59.798Z,9.60
2018-03-18T05:52:00.688Z,9.90
2018-03-18T05:53:00.227Z,8.20
2018-03-18T05:53:59.666Z,9.90
2018-03-18T05:55:00.184Z,8.60
2018-03-18T05:55:59.528Z,9.60
2018-03-18T05:56:59.286Z,9.50
2018-03-18T05:57:59.282Z,9.90
2018-03-18T05:58:59.121Z,10.50
2018-03-18T05:59:59.101Z,9.70
2018-03-18T06:00:58.964Z,9.60
2018-03-18T06:01:58.907Z,10.10
2018-03-18T06:02:58.770Z,9.40
2018-03-18T06:03:58.841Z,10.10
2018-03-18T06:04:58.604Z,9.90
2018-03-18T06:05:58.649Z,9.50
2018-03-18T06:06:58.437Z,10.90
2018-03-18T06:07:58.428Z,10.50
2018-03-18T06:08:58.343Z,9.50
2018-03-18T06:09:58.240Z,9.90
2018-03-18T06:10:58.107Z,10.50
2018-03-18T06:11:58.044Z,10.50
2018-03-18T06:12:57.917Z,9.50
2018-03-18T06:13:57.946Z,9.60
2018-03-18T06:14:57.759Z,9.70
2018-03-18T06:15:57.805Z,9.50
2018-03-18T06:16:57.595Z,10.30
2018-03-18T06:17:57.574Z,10.20
2018-03-18T06:18:57.411Z,9.90
2018-03-18T06:19:57.381Z,9.90
2018-03-18T06:21:01.186Z,9.50
2018-03-18T06:21:57.230Z,9.70
2018-03-18T06:22:57.078Z,9.90
2018-03-18T06:23:57.098Z,9.90
2018-03-18T06:24:56.899Z,10.00
2018-03-18T06:25:57.011Z,8.40
2018-03-18T06:26:56.750Z,10.30
2018-03-18T06:27:56.730Z,9.60
2018-03-18T06:28:56.543Z,9.70
2018-03-18T06:29:56.527Z,9.50
2018-03-18T06:30:56.412Z,9.30
2018-03-18T06:31:56.374Z,9.80
2018-03-18T06:32:56.220Z,10.30
2018-03-18T06:33:56.243Z,9.80
2018-03-18T06:34:56.047Z,10.10
2018-03-18T06:35:56.061Z,9.50
2018-03-18T06:36:55.900Z,9.90
2018-03-18T06:37:55.863Z,9.30
2018-03-18T06:38:55.700Z,9.10
2018-03-18T06:39:55.675Z,9.30
2018-03-18T06:40:55.535Z,10.60
2018-03-18T06:41:55.507Z,10.00
2018-03-18T06:42:55.352Z,9.30
2018-03-18T06:43:55.391Z,9.80
2018-03-18T06:44:55.192Z,9.40
2018-03-18T06:45:55.708Z,9.60
2018-03-18T06:46:55.032Z,9.10
2018-03-18T06:47:55.000Z,9.90
2018-03-18T06:48:54.861Z,9.80
2018-03-18T06:49:54.826Z,9.20
2018-03-18T06:50:54.678Z,9.70
2018-03-18T06:51:54.854Z,10.10
2018-03-18T06:52:54.517Z,9.70
2018-03-18T06:53:54.544Z,10.30
2018-03-18T06:54:54.397Z,9.60
2018-03-18T06:55:54.337Z,9.70
2018-03-18T06:56:54.168Z,10.10
2018-03-18T06:57:54.150Z,10.00
2018-03-18T06:58:53.996Z,10.90
2018-03-18T06:59:53.969Z,9.50
2018-03-18T07:00:53.828Z,10.10
2018-03-18T07:01:53.914Z,9.80
2018-03-18T07:02:53.647Z,10.20
2018-03-18T07:03:53.681Z,9.60
2018-03-18T07:04:54.242Z,9.90
2018-03-18T07:05:53.496Z,9.70
2018-03-18T07:06:53.313Z,9.40
2018-03-18T07:07:53.242Z,9.40
2018-03-18T07:08:53.139Z,9.70
2018-03-18T07:09:53.068Z,9.20
2018-03-18T07:10:52.972Z,9.20
2018-03-18T07:11:52.892Z,10.00
2018-03-18T07:12:52.807Z,9.60
2018-03-18T07:13:52.745Z,9.60
2018-03-18T07:14:52.630Z,9.90
2018-03-18T07:15:52.552Z,9.70
2018-03-18T07:16:52.463Z,8.90
2018-03-18T07:17:52.382Z,9.60
2018-03-18T07:18:52.385Z,10.00
2018-03-18T07:19:52.221Z,8.80
2018-03-18T07:20:52.119Z,9.80
2018-03-18T07:21:52.058Z,9.50
2018-03-18T07:22:51.950Z,10.20
2018-03-18T07:23:51.891Z,8.90
2018-03-18T07:24:51.773Z,10.20
2018-03-18T07:25:51.702Z,9.10
2018-03-18T07:26:51.619Z,9.90
2018-03-18T07:27:51.528Z,10.00
2018-03-18T07:28:51.451Z,10.10
2018-03-18T07:29:51.354Z,9.80
2018-03-18T07:30:51.261Z,9.90
2018-03-18T07:31:51.177Z,10.20
2018-03-18T07:32:51.083Z,9.30
2018-03-18T07:33:51.034Z,10.20
2018-03-18T07:34:50.915Z,9.70
2018-03-18T07:35:50.861Z,9.70
2018-03-18T07:36:50.748Z,9.30
2018-03-18T07:37:50.666Z,8.20
2018-03-18T07:38:50.599Z,9.50
2018-03-18T07:39:50.492Z,9.90
2018-03-18T07:40:50.397Z,10.00
2018-03-18T07:41:50.329Z,10.00
2018-03-18T07:42:50.281Z,10.20
2018-03-18T07:43:50.148Z,8.90
2018-03-18T07:44:50.072Z,9.60
2018-03-18T07:45:50.021Z,7.30
2018-03-18T07:46:49.882Z,9.10
2018-03-18T07:47:49.833Z,8.90
2018-03-18T07:48:49.752Z,9.40
2018-03-18T07:49:49.679Z,9.70
2018-03-18T07:50:49.539Z,10.00
2018-03-18T07:51:49.631Z,9.30
2018-03-18T07:52:49.395Z,9.10
2018-03-18T07:53:49.304Z,10.00
2018-03-18T07:54:49.218Z,10.10
2018-03-18T07:55:49.144Z,9.40
2018-03-18T07:56:49.052Z,7.80
2018-03-18T07:57:48.960Z,10.00
2018-03-18T07:58:48.873Z,8.30
2018-03-18T07:59:48.814Z,8.90
2018-03-18T08:00:48.704Z,9.50
2018-03-18T08:03:30.672Z,10.00
2018-03-18T08:04:30.608Z,9.70
2018-03-18T08:05:30.524Z,9.70
2018-03-18T08:06:30.426Z,10.10
2018-03-18T08:07:30.383Z,8.50
2018-03-18T08:08:30.247Z,9.90
2018-03-18T08:09:30.158Z,9.10
2018-03-18T08:10:30.736Z,9.90
2018-03-18T08:11:29.983Z,10.50
2018-03-18T08:12:29.941Z,9.80
2018-03-18T08:13:29.809Z,9.70
2018-03-18T08:14:29.727Z,10.00
2018-03-18T08:15:29.768Z,10.00
2018-03-18T08:16:31.196Z,9.90
2018-03-18T08:17:29.467Z,10.00
2018-03-18T08:18:29.393Z,10.40
2018-03-18T08:19:29.311Z,9.30
2018-03-18T08:20:29.242Z,9.90
2018-03-18T08:21:29.126Z,9.60
2018-03-18T08:22:29.060Z,10.30
2018-03-18T08:23:28.953Z,11.00
2018-03-18T08:24:28.895Z,8.90
2018-03-18T08:25:28.807Z,9.10
2018-03-18T08:26:28.821Z,10.50
2018-03-18T08:27:28.626Z,10.50
2018-03-18T08:28:28.543Z,10.30
2018-03-18T08:29:28.454Z,10.60
2018-03-18T08:30:28.391Z,10.40
2018-03-18T08:31:28.343Z,10.20
2018-03-18T08:32:28.227Z,10.70
2018-03-18T08:33:28.116Z,11.00
2018-03-18T08:34:28.050Z,10.00
2018-03-18T08:35:27.932Z,9.70
2018-03-18T08:36:27.882Z,10.50
2018-03-18T08:37:27.797Z,10.00
2018-03-18T08:38:27.703Z,9.00
2018-03-18T08:39:27.604Z,9.60
2018-03-18T08:40:27.515Z,9.80
2018-03-18T08:41:27.451Z,10.20
2018-03-18T08:42:27.427Z,10.00
2018-03-18T08:43:27.278Z,10.40
2018-03-18T08:44:27.198Z,9.80
2018-03-18T08:45:27.096Z,9.10
2018-03-18T08:46:27.022Z,8.80
2018-03-18T08:47:26.939Z,7.80
2018-03-18T08:48:26.862Z,8.80
2018-03-18T08:49:26.743Z,9.80
2018-03-18T08:50:26.663Z,10.10
2018-03-18T08:51:26.578Z,10.00
2018-03-18T08:52:26.533Z,10.20
2018-03-18T08:53:26.408Z,9.80
2018-03-18T08:54:26.336Z,10.30
2018-03-18T08:55:26.231Z,10.20
2018-03-18T08:56:26.156Z,9.90
2018-03-18T08:57:26.695Z,9.40
2018-03-18T08:58:25.993Z,10.20
2018-03-18T08:59:25.947Z,9.20
2018-03-18T09:00:25.819Z,9.00
2018-03-18T09:01:25.741Z,9.80
2018-03-18T09:02:25.696Z,10.70
2018-03-18T09:03:25.628Z,9.90
2018-03-18T09:04:26.205Z,9.60
2018-03-18T09:05:25.376Z,8.80
2018-03-18T09:06:25.323Z,9.20
2018-03-18T09:07:25.300Z,10.50
2018-03-18T09:08:25.174Z,9.50
2018-03-18T09:09:25.090Z,9.50
2018-03-18T09:10:24.975Z,10.90
2018-03-18T09:11:24.896Z,9.70
2018-03-18T09:12:25.707Z,10.60
2018-03-18T09:13:24.700Z,11.00
2018-03-18T09:14:24.722Z,10.30
2018-03-18T09:15:24.541Z,9.80
2018-03-18T09:16:24.468Z,10.00
2018-03-18T09:17:24.374Z,10.50
2018-03-18T09:18:24.298Z,10.40
2018-03-18T09:19:24.331Z,11.10
2018-03-18T09:20:24.113Z,10.30
2018-03-18T09:21:24.023Z,10.00
2018-03-18T09:22:23.951Z,11.30
2018-03-18T09:23:23.848Z,10.40
2018-03-18T09:24:24.759Z,10.90
2018-03-18T09:25:23.678Z,10.20
2018-03-18T09:26:23.619Z,10.50
2018-03-18T09:27:23.514Z,10.00
2018-03-18T09:30:05.702Z,10.70
2018-03-18T09:31:05.604Z,9.60
2018-03-18T09:32:05.607Z,9.80
2018-03-18T09:33:05.456Z,10.10
2018-03-18T09:34:05.331Z,10.50
2018-03-18T09:35:05.284Z,9.90
2018-03-18T09:36:05.162Z,10.00
2018-03-18T09:37:05.096Z,10.30
2018-03-18T09:38:04.995Z,9.50
2018-03-18T09:39:04.935Z,9.90
2018-03-18T09:40:05.752Z,8.90
2018-03-18T09:41:05.745Z,8.90
2018-03-18T09:42:04.655Z,9.50
2018-03-18T09:43:05.238Z,9.70
2018-03-18T09:44:04.501Z,9.10
2018-03-18T09:45:04.584Z,9.30
2018-03-18T09:46:04.431Z,9.70
2018-03-18T09:47:04.279Z,9.60
2018-03-18T09:48:04.173Z,7.90
2018-03-18T09:49:04.195Z,9.20
2018-03-18T09:50:04.017Z,8.80
2018-03-18T09:51:04.001Z,9.10
2018-03-18T09:52:03.807Z,9.70
2018-03-18T09:53:03.797Z,9.30
2018-03-18T09:54:03.648Z,9.70
2018-03-18T09:55:03.595Z,8.90
2018-03-18T09:56:03.477Z,8.80
2018-03-18T09:57:03.517Z,9.30
2018-03-18T09:58:03.324Z,9.90
2018-03-18T09:59:03.342Z,9.00
2018-03-18T10:00:03.146Z,12.20
2018-03-18T10:01:03.179Z,11.20
2018-03-18T10:02:03.005Z,9.50
2018-03-18T10:03:02.959Z,8.80
2018-03-18T10:04:02.809Z,9.00
2018-03-18T10:05:02.902Z,8.00
2018-03-18T10:06:02.668Z,8.30
2018-03-18T10:07:02.672Z,8.20
2018-03-18T10:08:03.231Z,8.20
2018-03-18T10:09:02.481Z,8.70
2018-03-18T10:10:02.397Z,7.80
2018-03-18T10:11:02.370Z,8.80
2018-03-18T10:12:02.330Z,8.40
2018-03-18T10:13:02.189Z,8.80
2018-03-18T10:14:02.015Z,9.00
2018-03-18T10:15:02.017Z,8.40
2018-03-18T10:16:01.920Z,9.30
2018-03-18T10:17:01.904Z,8.00
2018-03-18T10:18:01.640Z,8.40
2018-03-18T10:19:02.250Z,8.00
2018-03-18T10:20:01.479Z,8.10
2018-03-18T10:21:01.501Z,8.50
2018-03-18T10:22:01.343Z,8.10
2018-03-18T10:23:01.345Z,8.30
2018-03-18T10:24:01.134Z,8.40
2018-03-18T10:25:01.143Z,7.80
2018-03-18T10:26:01.058Z,7.90
2018-03-18T10:27:01.001Z,8.00
2018-03-18T10:28:02.706Z,8.20
2018-03-18T10:29:02.717Z,8.30
2018-03-18T10:30:00.710Z,8.10
2018-03-18T10:31:00.673Z,8.30
2018-03-18T10:32:00.564Z,7.40
2018-03-18T10:33:00.513Z,8.20
2018-03-18T10:34:00.331Z,7.60
2018-03-18T10:35:00.299Z,8.00
2018-03-18T10:36:00.148Z,7.70
2018-03-18T10:37:00.467Z,8.30
2018-03-18T10:38:00.017Z,8.30
2018-03-18T10:39:00.023Z,8.30
2018-03-18T10:39:59.801Z,8.00
2018-03-18T10:40:59.818Z,8.20
2018-03-18T10:41:59.712Z,6.80
2018-03-18T10:42:59.669Z,8.10
2018-03-18T10:43:59.529Z,7.80
2018-03-18T10:44:59.436Z,7.80
2018-03-18T10:45:59.368Z,8.40
2018-03-18T10:47:00.245Z,8.00
2018-03-18T10:47:59.149Z,7.40
2018-03-18T10:48:59.397Z,7.90
2018-03-18T10:49:58.968Z,8.30
2018-03-18T10:50:58.981Z,8.10
2018-03-18T10:51:59.010Z,8.20
2018-03-18T10:52:58.764Z,8.10
2018-03-18T10:53:58.862Z,7.80
2018-03-18T10:54:58.594Z,7.70
2018-03-18T10:55:58.456Z,7.50
2018-03-18T10:56:58.506Z,7.70
2018-03-18T10:57:58.296Z,7.80
2018-03-18T10:58:58.342Z,8.20
2018-03-18T10:59:58.132Z,7.60
2018-03-18T11:00:58.136Z,7.90
2018-03-18T11:01:58.006Z,7.90
2018-03-18T11:02:57.969Z,7.60
2018-03-18T11:03:57.890Z,6.20
2018-03-18T11:04:57.831Z,8.10
2018-03-18T11:05:57.649Z,7.70
2018-03-18T11:06:57.711Z,6.90
2018-03-18T11:07:57.460Z,7.70
2018-03-18T11:08:57.465Z,8.00
2018-03-18T11:09:57.301Z,6.20
2018-03-18T11:10:57.248Z,7.60
2018-03-18T11:11:57.130Z,6.50
2018-03-18T11:12:57.194Z,7.30
2018-03-18T11:13:56.960Z,6.80
2018-03-18T11:14:57.009Z,7.40
2018-03-18T11:15:56.936Z,7.10
2018-03-18T11:16:56.777Z,6.40
2018-03-18T11:17:56.630Z,6.90
2018-03-18T11:18:56.648Z,7.50
2018-03-18T11:19:56.487Z,7.10
2018-03-18T11:20:56.504Z,7.30
2018-03-18T11:21:56.297Z,6.70
2018-03-18T11:22:56.315Z,6.30
2018-03-18T11:23:56.120Z,6.70
2018-03-18T11:24:56.120Z,7.70
2018-03-18T11:25:55.992Z,7.20
2018-03-18T11:26:55.925Z,7.50
2018-03-18T11:27:55.792Z,6.20
2018-03-18T11:28:55.812Z,7.40
2018-03-18T11:29:55.627Z,6.40
2018-03-18T11:30:55.596Z,6.90
2018-03-18T11:31:55.468Z,7.10
2018-03-18T11:32:55.467Z,6.30
2018-03-18T11:33:55.279Z,6.70
2018-03-18T11:34:55.255Z,7.40
2018-03-18T11:35:55.172Z,7.30
2018-03-18T11:36:55.109Z,6.70
2018-03-18T11:37:54.952Z,6.80
2018-03-18T11:38:55.030Z,6.80
2018-03-18T11:39:54.902Z,7.50
2018-03-18T11:40:54.791Z,6.90
2018-03-18T11:41:54.629Z,6.90
2018-03-18T11:42:54.593Z,6.70
2018-03-18T11:43:54.511Z,7.00
2018-03-18T11:44:55.258Z,6.70
2018-03-18T11:45:54.395Z,7.30
2018-03-18T11:46:54.214Z,7.00
2018-03-18T11:47:54.136Z,7.40
2018-03-18T11:48:54.102Z,7.30
2018-03-18T11:49:53.978Z,6.40
2018-03-18T11:50:53.946Z,7.30
2018-03-18T11:51:53.796Z,7.00
2018-03-18T11:52:53.749Z,7.10
2018-03-18T11:53:53.629Z,7.20
2018-03-18T11:54:53.694Z,6.80
2018-03-18T11:55:53.486Z,8.10
2018-03-18T11:56:53.487Z,7.70
2018-03-18T11:57:53.331Z,7.40
2018-03-18T11:58:53.292Z,6.90
2018-03-18T11:59:53.167Z,6.70
2018-03-18T12:00:53.189Z,7.20
2018-03-18T12:01:52.999Z,7.50
2018-03-18T12:02:53.001Z,7.30
2018-03-18T12:03:52.803Z,7.20
2018-03-18T12:04:53.717Z,6.60
2018-03-18T12:05:52.649Z,6.70
2018-03-18T12:06:52.594Z,7.20
2018-03-18T12:07:52.489Z,7.10
2018-03-18T12:08:52.570Z,6.90
2018-03-18T12:09:52.347Z,5.50
2018-03-18T12:10:52.329Z,7.00
2018-03-18T12:11:52.157Z,7.00
2018-03-18T12:12:52.130Z,6.10
2018-03-18T12:13:52.003Z,5.50
2018-03-18T12:14:51.950Z,6.30
2018-03-18T12:15:51.828Z,6.30
2018-03-18T12:16:51.842Z,6.80
2018-03-18T12:17:51.653Z,6.60
2018-03-18T12:18:51.687Z,6.90
2018-03-18T12:19:51.520Z,6.00
2018-03-18T12:20:51.503Z,6.30
2018-03-18T12:21:51.410Z,6.50
2018-03-18T12:22:51.390Z,6.10
2018-03-18T12:23:51.162Z,6.30
2018-03-18T12:24:51.199Z,6.10
2018-03-18T12:25:51.047Z,6.10
2018-03-18T12:26:51.052Z,6.70
2018-03-18T12:27:50.838Z,6.30
2018-03-18T12:28:50.804Z,6.70
2018-03-18T12:29:51.309Z,6.60
2018-03-18T12:30:50.682Z,6.80
2018-03-18T12:31:50.510Z,6.30
2018-03-18T12:32:51.231Z,6.40
2018-03-18T12:33:50.387Z,5.80
2018-03-18T12:34:50.280Z,7.00
2018-03-18T12:35:50.258Z,6.40
2018-03-18T12:36:50.181Z,6.40
2018-03-18T12:37:50.013Z,6.10
2018-03-18T12:38:50.059Z,6.20
2018-03-18T12:39:49.849Z,7.20
2018-03-18T12:40:49.890Z,6.20
2018-03-18T12:41:49.718Z,6.50
2018-03-18T12:42:53.722Z,6.30
2018-03-18T12:43:49.523Z,6.50
2018-03-18T12:44:49.878Z,7.10
2018-03-18T12:45:50.342Z,6.70
2018-03-18T12:46:49.909Z,6.50
2018-03-18T12:47:49.189Z,6.70
2018-03-18T12:48:49.188Z,6.30
2018-03-18T12:49:49.019Z,6.60
2018-03-18T12:50:49.035Z,5.70
2018-03-18T12:51:48.874Z,7.20
2018-03-18T12:52:48.801Z,6.80
2018-03-18T12:53:48.686Z,6.30
2018-03-18T12:54:48.631Z,6.30
2018-03-18T12:55:48.517Z,6.70
2018-03-18T12:56:48.547Z,6.80
2018-03-18T12:57:48.354Z,6.40
2018-03-18T12:58:48.334Z,6.20
2018-03-18T12:59:48.300Z,6.10
2018-03-18T13:00:48.241Z,5.80
2018-03-18T13:01:48.037Z,6.60
2018-03-18T13:02:47.987Z,6.00
2018-03-18T13:03:47.895Z,6.60
2018-03-18T13:04:47.897Z,5.80
2018-03-18T13:05:47.734Z,5.90
2018-03-18T13:06:48.278Z,6.40
2018-03-18T13:07:47.580Z,6.00
2018-03-18T13:08:47.458Z,6.60
2018-03-18T13:09:48.257Z,6.00
2018-03-18T13:10:47.386Z,6.00
2018-03-18T13:11:47.754Z,6.50
2018-03-18T13:12:47.236Z,6.90
2018-03-18T13:13:47.046Z,6.50
2018-03-18T13:14:46.967Z,7.30
2018-03-18T13:15:46.889Z,6.50
2018-03-18T13:16:46.956Z,6.40
2018-03-18T13:17:46.746Z,6.30
2018-03-18T13:18:46.933Z,6.20